Tiempo atmosférico en la estación meteorológica de Areso, Navarra (520 m.)



Fecha
DESCASC
Temp. máxima en grados centígrados (hora)
DESCASC
Temp. mínima en grados centígrados (hora)
DESCASC
Temp. media en grados centígrados
DESCASC
Racha de viento máxima en m/sg (hora)
DESCASC
Velocidad máxima media en intervalos de 10 minutos(hora)
DESCASC
Precipitaciones diarias en mm
DESCASC
Precipitaciones de 00:00 a 06:00 en mm
DESCASC
Precipitaciones de 06:00 a 12:00 en mm
DESCASC
Precipitaciones de 12:00 a 18:00 en mm
DESCASC
Precipitaciones de 18:00 a 24:00 en mm
DESCASC
05-04-2020 17.7 (16:10) 9.6 (07:20) 13.7 16.11 (10:50) 8.89 (09:40) 0 0 0 0 0
04-04-2020 19 (16:30) 2.9 (01:20) 11 15.28 (12:30) 7.5 (12:50) 0 0 0 0 0
03-04-2020 13.1 (17:30) 2.5 (06:40) 7.8 4.72 (16:30) 2.5 (16:30) 0 0 0 0 0
02-04-2020 13.1 (16:10) 5.1 (00:00) 9.1 6.67 (18:00) 3.06 (18:00) 0.6 0.6 0 0 0
01-04-2020 12.6 (14:30) 7.8 (00:00) 10.2 11.11 (14:00) 5.28 (12:10) 3.2 0.2 0 0 3
31-03-2020 8.3 (16:40) -0.8 (-00:0) 3.8 4.72 (23:40) 1.67 (17:50) 6 0 3.2 2.6 0.2
30-03-2020 3.8 (16:30) -0.7 (-00:0) 1.5 6.11 (02:50) 1.94 (02:50) 9 0.8 2.8 5.4 0
29-03-2020 10.1 (12:00) 1.5 (00:00) 5.8 5 (20:20) 1.94 (11:40) 1.4 0 0 0.2 1.2
28-03-2020 14.9 (12:50) 0.9 (00:00) 7.9 6.39 (14:10) 3.61 (15:00) 0 0 0 0 0
27-03-2020 12.7 (14:30) -1.3 (-00:0) 5.7 5.28 (12:10) 2.22 (15:00) 0 0 0 0 0
26-03-2020 9 (13:10) 0.6 (00:00) 4.8 10 (10:50) 3.89 (15:20) 0 0 0 0 0
25-03-2020 13.7 (13:50) 4.1 (00:00) 8.9 6.94 (12:10) 2.5 (12:20) 0 0 0 0 0
24-03-2020 17.1 (14:50) 6.6 (00:00) 11.9 7.22 (15:40) 3.89 (09:00) 0 0 0 0 0
23-03-2020 15.1 (14:40) 5.5 (00:00) 10.3 4.72 (15:10) 1.67 (12:40) 4.6 0 0 4 0.6
22-03-2020 16 (12:50) 6.1 (23:50) 11 5.83 (16:40) 2.78 (01:30) 0 0 0 0 0
21-03-2020 16.4 (15:20) 8.4 (00:00) 12.4 16.11 (05:30) 8.61 (05:00) 0 0 0 0 0
20-03-2020 15 (14:50) 9.3 (00:00) 12.2 16.11 (10:20) 10.28 (12:30) 0 0 0 0 0
19-03-2020 17.7 (15:40) 11.8 (00:00) 14.8 14.72 (23:59) 8.33 (23:59) 0 0 0 0 0
18-03-2020 18.4 (15:50) 7.6 (00:00) 13 8.89 (23:59) 4.17 (17:50) 0 0 0 0 0
17-03-2020 11.6 (17:40) 7.6 (00:00) 9.6 2.22 (18:00) 0.83 (15:20) 0.8 0.6 0 0.2 0
16-03-2020 7.7 (15:00) 5 (00:00) 6.3 6.39 (00:10) 2.5 (00:10) 36.8 17.2 12.2 4.8 2.6
15-03-2020 19.2 (15:20) 3.2 (00:00) 11.2 16.11 (05:30) 9.72 (05:30) 26.2 0 0 0 26.2
14-03-2020 12.5 (15:00) 3.1 (00:00) 7.8 5.28 (12:00) 2.5 (11:20) 0 0 0 0 0
13-03-2020 10.9 (11:50) 6.1 (23:50) 8.5 5 (01:50) 1.94 (11:00) 0.4 0.2 0.2 0 0
12-03-2020 11.5 (13:20) 8.2 (00:00) 9.8 -- (--) -- (--) 0.2 0 0.2 0 0
11-03-2020 21.5 (15:30) 5.2 (00:00) 13.3 -- (--) -- (--) 0 0 0 0 0

Gráficas

Temp. máximas Temp. mínimas Temp. medias Precipitaciones Rachas de viento máximas Velocidades máximas media en intervalos de 10 minutos

Datos horarios

Fecha y hora oficial Temperatura (ºC) Velocidad del viento (km/h) Dirección del viento Racha (km/h) Dirección de racha Precipitación (mm) Presión (hPa) Tendencia (hPa) Humedad (%)
2020-04-09 23:00:00 -- -- -- -- -- -- -- -- --
2020-04-09 22:00:00 16.9 15 Sudoeste 31 Sur 0 -- -- 60
2020-04-09 21:00:00 17.8 11 Sur 31 Sur 0 -- -- 55
2020-04-09 20:00:00 19 15 Sudoeste 33 Sudoeste 0 -- -- 52
2020-04-09 19:00:00 20.8 11 Sur 28 Sudoeste 0 -- -- 46
2020-04-09 18:00:00 21.2 12 Sur 36 Sur 0 -- -- 44
2020-04-09 17:00:00 20.9 21 Sudoeste 34 Sudoeste 0 -- -- 47
2020-04-09 16:00:00 20.4 18 Sudoeste 35 Sur 0 -- -- 50
2020-04-09 15:00:00 19.7 19 Sudoeste 38 Sudoeste 0 -- -- 51
2020-04-09 14:00:00 19.1 19 Sudoeste 36 Sudoeste 0 -- -- 52
2020-04-09 13:00:00 17.8 23 Sudoeste 39 Sur 0 -- -- 54
2020-04-09 12:00:00 17 21 Sudoeste 40 Sudoeste 0 -- -- 55
2020-04-09 11:00:00 16.1 15 Sudoeste 38 Sudoeste 0 -- -- 57
2020-04-09 10:00:00 14.8 17 Sudoeste 34 Sudoeste 0 -- -- 59
2020-04-09 09:00:00 13.4 10 Sudoeste 28 Sudoeste 0 -- -- 65
2020-04-09 08:00:00 12.8 9 Oeste 32 Sudoeste 0 -- -- 70
2020-04-09 07:00:00 13 15 Sudoeste 33 Sudoeste 0 -- -- 71
2020-04-09 06:00:00 13.2 14 Sudoeste 34 Sur 0 -- -- 71
2020-04-09 05:00:00 13.5 17 Sudoeste 37 Sur 0 -- -- 70
2020-04-09 04:00:00 13.7 14 Sudoeste 39 Sudoeste 0 -- -- 69
2020-04-09 03:00:00 14.1 20 Sudoeste 39 Sur 0 -- -- 69
2020-04-09 02:00:00 14.4 17 Sudoeste 35 Sur 0 -- -- 71
2020-04-09 01:00:00 14.6 12 Sudoeste 28 Sudoeste 0 -- -- 73
2020-04-09 00:00:00 15.1 11 Sudoeste 25 Sudoeste 0 -- -- 69
2020-04-08 23:00:00 15.3 11 Sudoeste 19 Sudoeste 0 -- -- 69
2020-04-08 22:00:00 15.1 6 Sur 15 Sur 0 -- -- 68
2020-04-08 21:00:00 16 3 Sudoeste 13 Sur 0 -- -- 66
2020-04-08 20:00:00 18.4 3 Nordeste 15 Sudoeste 0 -- -- 59
2020-04-08 19:00:00 20.5 7 Sur 16 Sudoeste 0 -- -- 54
2020-04-08 18:00:00 20.7 6 Sudoeste 18 Sudoeste 0 -- -- 51
2020-04-08 17:00:00 20.6 8 Sudoeste 21 Sudoeste 0 -- -- 54
2020-04-08 16:00:00 20.4 10 Sur 22 Sudoeste 0 -- -- 55
2020-04-08 15:00:00 19.8 10 Sudoeste 22 Sudoeste 0 -- -- 55
2020-04-08 14:00:00 18.5 10 Sudoeste 28 Sur 0 -- -- 56
2020-04-08 13:00:00 17.1 14 Sudoeste 33 Sudoeste 0 -- -- 61
2020-04-08 12:00:00 16.1 19 Sudoeste 33 Sudoeste 0 -- -- 59
2020-04-08 11:00:00 15.1 13 Sur 33 Sudoeste 0 -- -- 63
2020-04-08 10:00:00 13.5 13 Sudoeste 33 Sudoeste 0 -- -- 66
2020-04-08 09:00:00 12.2 12 Sudoeste 31 Sudoeste 0 -- -- 73
2020-04-08 08:00:00 11.9 14 Sudoeste 32 Sur 0 -- -- 76
2020-04-08 07:00:00 12 14 Sudoeste 31 Sudoeste 0 -- -- 78
2020-04-08 06:00:00 12 15 Sudoeste 38 Sudoeste 0 -- -- 78
2020-04-08 05:00:00 12.2 16 Sudoeste 35 Sur 0 -- -- 78
2020-04-08 04:00:00 12.6 22 Sudoeste 41 Sudoeste 0 -- -- 77
2020-04-08 03:00:00 12.7 10 Sur 40 Sudeste 0 -- -- 78
2020-04-08 02:00:00 12.8 18 Sudoeste 36 Sur 0 -- -- 78
2020-04-08 01:00:00 13 17 Sur 29 Sur 0 -- -- 79
2020-04-08 00:00:00 12.8 10 Sudoeste 36 Sudoeste 0 -- -- 81
2020-04-07 23:00:00 13.1 21 Sudoeste 36 Sudoeste 0 -- -- 79
2020-04-07 22:00:00 13.2 20 Sudoeste 44 Sudoeste 0 -- -- 78
2020-04-07 21:00:00 13.1 19 Sur 36 Sur 0 -- -- 80
2020-04-07 20:00:00 13.4 19 Sur 40 Sur 0 -- -- 80
2020-04-07 19:00:00 14.5 9 Sur 38 Sudoeste 0 -- -- 77
2020-04-07 18:00:00 15 13 Sur 33 Sudeste 0 -- -- 77
2020-04-07 17:00:00 15.8 10 Sur 24 Sudoeste 0 -- -- 73
2020-04-07 16:00:00 14.5 10 Sur 45 Sur 0 -- -- 79
2020-04-07 15:00:00 13.2 22 Sur 45 Sur 0 -- -- 79
2020-04-07 14:00:00 13 17 Sur 49 Sur 0 -- -- 79
2020-04-07 13:00:00 12.6 17 Sur 39 Sur 0 -- -- 81
2020-04-07 12:00:00 12.4 9 Sudoeste 33 Sudoeste 0 -- -- 81
2020-04-07 11:00:00 12.8 13 Sur 32 Sur 0 -- -- 76
2020-04-07 10:00:00 13.1 11 Sur 28 Sur 0 -- -- 72
2020-04-07 09:00:00 12.2 11 Sudoeste 23 Sudoeste 0 -- -- 78
2020-04-07 08:00:00 11.9 8 Sudoeste 29 Sudeste 0 -- -- 78
2020-04-07 07:00:00 11.5 12 Sur 28 Sur 0 -- -- 82
2020-04-07 06:00:00 12 22 Sur 34 Sudoeste 0 -- -- 78
2020-04-07 05:00:00 12.1 8 Sudoeste 30 Sudoeste 0 -- -- 79
2020-04-07 04:00:00 12 13 Sudoeste 31 Sur 0 -- -- 83
2020-04-07 03:00:00 11.9 8 Sur 27 Sudoeste 0 -- -- 86
2020-04-07 02:00:00 11.6 10 Sudoeste 21 Sudoeste 0 -- -- 87
2020-04-07 01:00:00 11.1 6 Sudoeste 16 Sudoeste 0.2 -- -- 92
2020-04-07 00:00:00 10.6 4 Oeste 10 Sudoeste 0.2 -- -- 96
2020-04-06 23:00:00 10.4 0 Calma 4 Noroeste 0.4 -- -- 99
2020-04-06 22:00:00 10.6 0 Calma 5 Noroeste 0.6 -- -- 99
2020-04-06 21:00:00 10.6 0 Calma 2 Noroeste 1 -- -- 98
2020-04-06 20:00:00 11 0 Calma 6 Noroeste 1.2 -- -- 96
2020-04-06 19:00:00 11.5 2 Noroeste 9 Oeste 0.6 -- -- 90
2020-04-06 18:00:00 12.5 3 Sudoeste 15 Oeste 0.2 -- -- 84
2020-04-06 17:00:00 14.7 8 Sur 23 Sur 0 -- -- 61
2020-04-06 16:00:00 15.3 8 Sudoeste 23 Sur 0 -- -- 63
2020-04-06 15:00:00 14.3 9 Sudoeste 33 Sudoeste 0 -- -- 64
2020-04-06 14:00:00 13.3 12 Sur 35 Oeste 0 -- -- 67
2020-04-06 13:00:00 13.2 12 Sudoeste 24 Oeste 0 -- -- 69
2020-04-06 12:00:00 12.3 13 Sur 41 Sudoeste 0 -- -- 71
2020-04-06 11:00:00 11.5 21 Sur 51 Sur 0 -- -- 74
2020-04-06 10:00:00 11.3 23 Sur 48 Sudoeste 0 -- -- 75
2020-04-06 09:00:00 11 25 Sudoeste 45 Sudoeste 0 -- -- 74
2020-04-06 08:00:00 10.9 17 Sur 47 Sur 0 -- -- 73
2020-04-06 07:00:00 10.6 21 Sudoeste 37 Sur 0.6 -- -- 78
2020-04-06 06:00:00 11.1 16 Sur 30 Sur 0 -- -- 77
2020-04-06 05:00:00 11.2 18 Sudoeste 32 Sudoeste 0.2 -- -- 77
2020-04-06 04:00:00 11.7 15 Sudoeste 35 Sur 0 -- -- 74
2020-04-06 03:00:00 12.1 19 Sur 42 Sudeste 0 -- -- 72
2020-04-06 02:00:00 12.1 18 Sur 45 Sur 1.4 -- -- 74
2020-04-06 01:00:00 13 21 Sur 52 Sur 0 -- -- 68
2020-04-06 00:00:00 14.1 20 Sur 43 Sur 0 -- -- 57
2020-04-05 23:00:00 14.5 20 Sudoeste 54 Sur 0 -- -- 56
2020-04-05 22:00:00 14.7 17 Sur 46 Sur 0 -- -- 56
2020-04-05 21:00:00 15.1 26 Sur 53 Sur 0 -- -- 55
2020-04-05 20:00:00 15.7 23 Sur 48 Sur 0 -- -- 54
2020-04-05 19:00:00 16.5 23 Sur 48 Sudoeste 0 -- -- 51
2020-04-05 18:00:00 17.5 26 Sur 48 Sudoeste 0 -- -- 50
2020-04-05 17:00:00 17.4 26 Sur 50 Sudeste 0 -- -- 49
2020-04-05 16:00:00 17.6 22 Sudoeste 48 Sur 0 -- -- 50
2020-04-05 15:00:00 16.9 15 Sur 51 Sur 0 -- -- 50
2020-04-05 14:00:00 15.4 20 Sudoeste 51 Sudoeste 0 -- -- 51
2020-04-05 13:00:00 13.8 22 Sudoeste 46 Sur 0 -- -- 52
2020-04-05 12:00:00 12.2 17 Sudoeste 45 Sudeste 0 -- -- 54
2020-04-05 11:00:00 12.2 18 Sur 58 Sudoeste 0 -- -- 51
2020-04-05 10:00:00 11.2 16 Sur 54 Sudoeste 0 -- -- 53
2020-04-05 09:00:00 10.1 15 Sudeste 42 Sudoeste 0 -- -- 58
2020-04-05 08:00:00 9.7 10 Sur 45 Sudoeste 0 -- -- 57
2020-04-05 07:00:00 9.8 12 Sudeste 36 Este 0 -- -- 60
2020-04-05 06:00:00 10.2 12 Sudeste 33 Sudeste 0 -- -- 58
2020-04-05 05:00:00 10.3 10 Este 39 Sudeste 0 -- -- 58
2020-04-05 04:00:00 10.8 10 Este 39 Sur 0 -- -- 58
2020-04-05 03:00:00 11 14 Sur 48 Sudoeste 0 -- -- 61
2020-04-05 02:00:00 11.7 21 Sur 38 Sur 0 -- -- 60
2020-04-05 01:00:00 12.1 19 Sur 36 Sudoeste 0 -- -- 61
2020-04-05 00:00:00 12.3 4 Sudeste 20 Sudeste 0 -- -- 57
2020-04-04 23:00:00 13.3 7 Sur 25 Sur 0 -- -- 51
2020-04-04 22:00:00 13.9 4 Sur 30 Sudoeste 0 -- -- 49
2020-04-04 21:00:00 14.9 10 Sudoeste 33 Oeste 0 -- -- 46
2020-04-04 20:00:00 15.9 12 Sudoeste 34 Sudoeste 0 -- -- 39
2020-04-04 19:00:00 17.3 8 Sudeste 31 Sur 0 -- -- 35
2020-04-04 18:00:00 18.4 10 Sudeste 42 Sudoeste 0 -- -- 32
2020-04-04 17:00:00 18.3 20 Sudoeste 51 Sur 0 -- -- 29
2020-04-04 16:00:00 18.4 14 Sudoeste 46 Sudoeste 0 -- -- 36
2020-04-04 15:00:00 17.2 23 Sudoeste 52 Sur 0 -- -- 37
2020-04-04 14:00:00 16.3 20 Sudoeste 49 Sudeste 0 -- -- 51
2020-04-04 13:00:00 14.9 23 Sur 55 Sur 0 -- -- 57
2020-04-04 12:00:00 14.1 13 Sur 41 Sudoeste 0 -- -- 58
2020-04-04 11:00:00 12.5 14 Sudoeste 34 Sudoeste 0 -- -- 59
2020-04-04 10:00:00 11.2 12 Sur 33 Sudoeste 0 -- -- 59
2020-04-04 09:00:00 9.4 8 Noroeste 22 Sur 0 -- -- 62
2020-04-04 08:00:00 7.9 9 Sudoeste 28 Sur 0 -- -- 66
2020-04-04 07:00:00 8.9 16 Sudoeste 36 Sudoeste 0 -- -- 61
2020-04-04 06:00:00 9.7 23 Sudoeste 38 Sudoeste 0 -- -- 57
2020-04-04 05:00:00 9 9 Oeste 18 Oeste 0 -- -- 61
2020-04-04 04:00:00 7.4 6 Noroeste 12 Noroeste 0 -- -- 69
2020-04-04 03:00:00 3.7 0 Calma 5 Oeste 0 -- -- 90
2020-04-04 02:00:00 3.1 2 Oeste 6 Oeste 0 -- -- 93
2020-04-04 01:00:00 3.3 0 Calma 2 Sur 0 -- -- 92
2020-04-04 00:00:00 3.9 0 Calma 3 Sur 0 -- -- 89
2020-04-03 23:00:00 4.6 0 Calma 4 Este 0 -- -- 87
2020-04-03 22:00:00 5.2 0 Calma 2 Nordeste 0 -- -- 85
2020-04-03 21:00:00 6.9 0 Calma 6 Norte 0 -- -- 77
2020-04-03 20:00:00 8.9 2 Norte 13 Oeste 0 -- -- 69
2020-04-03 19:00:00 11.9 2 Nordeste 15 Noroeste 0 -- -- 61
2020-04-03 18:00:00 12.6 4 Noroeste 16 Oeste 0 -- -- 57
2020-04-03 17:00:00 12.5 8 Norte 17 Noroeste 0 -- -- 54
2020-04-03 16:00:00 12.4 4 Sudoeste 14 Oeste 0 -- -- 59
2020-04-03 15:00:00 11.7 4 Oeste 15 Noroeste 0 -- -- 64
2020-04-03 14:00:00 10.8 5 Nordeste 14 Este 0 -- -- 67
2020-04-03 13:00:00 9.3 5 Nordeste 12 Nordeste 0 -- -- 71
2020-04-03 12:00:00 7.4 3 Noroeste 9 Nordeste 0 -- -- 78
2020-04-03 11:00:00 6.3 0 Calma 5 Este 0 -- -- 89
2020-04-03 10:00:00 5.2 0 Calma 3 Sudeste 0 -- -- 95
2020-04-03 09:00:00 3.5 0 Calma 0 Calma 0 -- -- 100
2020-04-03 08:00:00 2.8 0 Calma 3 Este 0 -- -- 99
2020-04-03 07:00:00 2.6 0 Calma 2 Este 0 -- -- 98
2020-04-03 06:00:00 2.9 0 Calma 3 Este 0 -- -- 97
2020-04-03 05:00:00 2.9 0 Calma 2 Este 0 -- -- 97
2020-04-03 04:00:00 3.3 0 Calma 3 Este 0 -- -- 95
2020-04-03 03:00:00 3.8 0 Calma 3 Este 0 -- -- 93
2020-04-03 02:00:00 4.3 0 Calma 10 Este 0 -- -- 90
2020-04-03 01:00:00 4.7 0 Calma 7 Sur 0 -- -- 89
2020-04-03 00:00:00 5.1 2 Sur 6 Noroeste 0 -- -- 89
2020-04-02 23:00:00 5.6 2 Sur 6 Sudeste 0 -- -- 87
2020-04-02 22:00:00 5.7 2 Sur 5 Este 0 -- -- 89
2020-04-02 21:00:00 6.4 0 Calma 22 Oeste 0 -- -- 82
2020-04-02 20:00:00 7.9 3 Noroeste 15 Noroeste 0 -- -- 77
2020-04-02 19:00:00 10.1 5 Sur 21 Noroeste 0 -- -- 75
2020-04-02 18:00:00 11.8 11 Noroeste 24 Noroeste 0 -- -- 72
2020-04-02 17:00:00 11.7 6 Sudeste 22 Este 0 -- -- 73
2020-04-02 16:00:00 13 5 Norte 23 Nordeste 0 -- -- 71
2020-04-02 15:00:00 12.5 5 Este 16 Oeste 0 -- -- 76
2020-04-02 14:00:00 10.5 4 Noroeste 14 Norte 0 -- -- 83
2020-04-02 13:00:00 9.6 3 Norte 11 Este 0 -- -- 86
2020-04-02 12:00:00 9.4 5 Sudoeste 14 Noroeste 0 -- -- 91
2020-04-02 11:00:00 8.7 0 Calma 6 Este 0 -- -- 100
2020-04-02 10:00:00 8.4 2 Norte 4 Norte 0 -- -- 100
2020-04-02 09:00:00 7.5 0 Calma 2 Noroeste 0 -- -- 100
2020-04-02 08:00:00 7.3 0 Calma 6 Noroeste 0 -- -- 100
2020-04-02 07:00:00 7.5 0 Calma 4 Norte 0 -- -- 100
2020-04-02 06:00:00 7.7 0 Calma 4 Este 0 -- -- 100
2020-04-02 05:00:00 7.7 0 Calma 2 Este 0 -- -- 100
2020-04-02 04:00:00 7.9 0 Calma 0 Calma 0 -- -- 100
2020-04-02 03:00:00 7.9 0 Calma 3 Este 0 -- -- 100
2020-04-02 02:00:00 7.9 2 Este 4 Este 0 -- -- 100
2020-04-02 01:00:00 8.1 0 Calma 3 Este 0.6 -- -- 100
2020-04-02 00:00:00 8.2 0 Calma 5 Este 2 -- -- 99
2020-04-01 23:00:00 8.5 3 Este 5 Este 0.8 -- -- 97
2020-04-01 22:00:00 9 0 Calma 4 Nordeste 0 -- -- 94
2020-04-01 21:00:00 9.4 0 Calma 8 Sudoeste 0.2 -- -- 89
2020-04-01 20:00:00 10 5 Sur 19 Sudoeste 0 -- -- 84
2020-04-01 19:00:00 10.4 8 Sur 23 Sur 0 -- -- 82
2020-04-01 18:00:00 11 4 Sudeste 30 Sudoeste 0 -- -- 78
2020-04-01 17:00:00 11.5 9 Sur 28 Sudoeste 0 -- -- 75
2020-04-01 16:00:00 11.4 18 Sudoeste 31 Sudoeste 0 -- -- 73
2020-04-01 15:00:00 12.1 9 Sudoeste 32 Sur 0 -- -- 77
2020-04-01 14:00:00 11.4 18 Sudoeste 40 Sudoeste 0 -- -- 71
2020-04-01 13:00:00 11.2 5 Sur 34 Sudoeste 0 -- -- 78
2020-04-01 12:00:00 11.1 15 Sudoeste 28 Sudoeste 0 -- -- 76
2020-04-01 11:00:00 11.5 12 Sudoeste 26 Oeste 0 -- -- 75
2020-04-01 10:00:00 10.1 6 Este 32 Este 0 -- -- 79
2020-04-01 09:00:00 9.1 5 Sudoeste 16 Sudeste 0 -- -- 81
2020-04-01 08:00:00 8.5 5 Sur 22 Sudoeste 0 -- -- 83
2020-04-01 07:00:00 8.2 3 Sur 14 Noroeste 0 -- -- 85
2020-04-01 06:00:00 8.4 5 Nordeste 30 Este 0 -- -- 84
2020-04-01 05:00:00 8.3 11 Sudeste 29 Sudoeste 0.2 -- -- 84
2020-04-01 04:00:00 8.1 4 Noroeste 18 Nordeste 0 -- -- 85
2020-04-01 03:00:00 8.4 7 Sudeste 31 Sudeste 0 -- -- 83
2020-04-01 02:00:00 8.1 7 Sudeste 27 Sur 0 -- -- 85
2020-04-01 01:00:00 8.1 8 Sur 31 Sur 0 -- -- 86
2020-04-01 00:00:00 7.8 5 Sur 17 Este 0 -- -- 88
2020-03-31 23:00:00 6.3 2 Sudoeste 10 Noroeste 0 -- -- 100
2020-03-31 22:00:00 5.2 0 Calma 4 Nordeste 0 -- -- 99
2020-03-31 21:00:00 5.5 0 Calma 8 Nordeste 0 -- -- 97
2020-03-31 20:00:00 6.2 5 Nordeste 13 Este 0 -- -- 95
2020-03-31 19:00:00 6.6 2 Nordeste 10 Nordeste 0.2 -- -- 97
2020-03-31 18:00:00 6.3 6 Nordeste 14 Nordeste 0.6 -- -- 96
2020-03-31 17:00:00 7.9 4 Este 12 Nordeste 0.2 -- -- 93
2020-03-31 16:00:00 7.3 0 Calma 4 Este 0.4 -- -- 94
2020-03-31 15:00:00 6.6 2 Este 13 Sudeste 0.6 -- -- 95
2020-03-31 14:00:00 5.5 5 Este 13 Este 0 -- -- 94
2020-03-31 13:00:00 4.3 2 Este 10 Este 0.8 -- -- 98
2020-03-31 12:00:00 2.6 3 Este 12 Este 1.2 -- -- 98
2020-03-31 11:00:00 2 0 Calma 9 Nordeste 1.6 -- -- 98
2020-03-31 10:00:00 1.4 3 Este 10 Sudeste 0.4 -- -- 100
2020-03-31 09:00:00 0.7 2 Este 12 Este 0 -- -- 100
2020-03-31 08:00:00 0.3 2 Este 10 Sudeste 0 -- -- 100
2020-03-31 07:00:00 0.3 0 Calma 4 Norte 0 -- -- 100
2020-03-31 06:00:00 0.3 0 Calma 7 Este 0 -- -- 100
2020-03-31 05:00:00 0.4 3 Este 14 Sudeste 0 -- -- 100
2020-03-31 04:00:00 -0.4 0 Calma 2 Este 0 -- -- 100
2020-03-31 03:00:00 -0.7 0 Calma 2 Sudeste 0 -- -- 100
2020-03-31 02:00:00 -0.8 0 Calma 2 Sudeste 0 -- -- 100
2020-03-31 01:00:00 -0.2 0 Calma 4 Sudeste 0 -- -- 100
2020-03-31 00:00:00 0.3 0 Calma 2 Este 0 -- -- 100
2020-03-30 23:00:00 0.6 0 Calma 3 Este 0 -- -- 100
2020-03-30 22:00:00 0.7 0 Calma 3 Este 0 -- -- 99
2020-03-30 21:00:00 1.1 0 Calma 4 Este 0 -- -- 96
2020-03-30 20:00:00 2 0 Calma 8 Noroeste 0 -- -- 93
2020-03-30 19:00:00 2.6 0 Calma 10 Noroeste 0 -- -- 88
2020-03-30 18:00:00 2.9 2 Noroeste 10 Nordeste 0 -- -- 82
2020-03-30 17:00:00 3.5 5 Este 13 Nordeste 0 -- -- 79
2020-03-30 16:00:00 2.9 2 Oeste 10 Nordeste 0 -- -- 82
2020-03-30 15:00:00 2.6 5 Oeste 15 Este 0.8 -- -- 82
2020-03-30 14:00:00 2.3 2 Sur 12 Noroeste 1.4 -- -- 91
2020-03-30 13:00:00 2.7 2 Sur 11 Nordeste 3.2 -- -- 85
2020-03-30 12:00:00 2.6 3 Este 6 Este 2.8 -- -- 86
2020-03-30 11:00:00 1.3 0 Calma 0 Calma 0 -- -- 92
2020-03-30 10:00:00 -0.1 0 Calma -- -- 0 -- -- 100
2020-03-30 09:00:00 -0.6 0 Calma -- -- 0 -- -- 100
2020-03-30 08:00:00 -0.5 0 Calma 3 Este 0 -- -- 100
2020-03-30 07:00:00 0.2 0 Calma 6 Este 0 -- -- 99
2020-03-30 06:00:00 0.6 0 Calma 12 Norte 0 -- -- 96
2020-03-30 05:00:00 1.1 3 Nordeste 14 Nordeste 0 -- -- 91
2020-03-30 04:00:00 0.9 2 Este 12 Este 0 -- -- 98
2020-03-30 03:00:00 0.9 4 Este 22 Este 0.2 -- -- 96
2020-03-30 02:00:00 1.4 4 Nordeste 15 Nordeste 0.2 -- -- 98
2020-03-30 01:00:00 2 4 Nordeste 16 Este 0.4 -- -- 97
2020-03-30 00:00:00 3.2 5 Este 14 Nordeste 0.2 -- -- 98
2020-03-29 23:00:00 4.2 4 Sudeste 16 Norte 0.2 -- -- 98
2020-03-29 22:00:00 5 4 Sudeste 12 Sudeste 0.2 -- -- 99
2020-03-29 21:00:00 5.6 3 Este 18 Este 0.4 -- -- 100
2020-03-29 20:00:00 6.1 3 Sur 10 Sudoeste 0.2 -- -- 100
2020-03-29 19:00:00 6.3 3 Sur 11 Oeste 0 -- -- 100
2020-03-29 18:00:00 6.6 4 Sur 12 Oeste 0 -- -- 100
2020-03-29 17:00:00 7 5 Sur 13 Este 0.2 -- -- 97
2020-03-29 16:00:00 7.9 2 Nordeste 15 Este 0 -- -- 87
2020-03-29 15:00:00 9.3 5 Este 15 Noroeste 0 -- -- 76
2020-03-29 14:00:00 9.4 3 Noroeste 11 Oeste 0 -- -- 76
2020-03-29 13:00:00 9.6 4 Sur 16 Este 0 -- -- 76
2020-03-29 12:00:00 10.1 4 Oeste 17 Oeste 0 -- -- 74
2020-03-29 11:00:00 8.5 5 Este 10 Nordeste 0 -- -- 83
2020-03-29 10:00:00 4.5 0 Calma 2 Norte 0 -- -- 100
2020-03-29 09:00:00 2.5 0 Calma 2 Norte 0 -- -- 100
2020-03-29 08:00:00 2.1 0 Calma 0 Calma 0 -- -- 100
2020-03-29 07:00:00 1.6 0 Calma 0 Calma 0 -- -- 99
2020-03-29 06:00:00 1.8 0 Calma 2 Norte 0 -- -- 99
2020-03-29 05:00:00 1.6 0 Calma 0 Calma 0 -- -- 96
2020-03-29 03:00:00 1.9 0 Calma 2 Norte 0 -- -- 90
2020-03-29 01:00:00 2.6 0 Calma 0 Calma 0 -- -- 87
2020-03-29 00:00:00 3.2 0 Calma 0 Calma 0 -- -- 86
2020-03-28 23:00:00 4.3 0 Calma 2 Nordeste 0 -- -- 81
2020-03-28 22:00:00 5.4 0 Calma 2 Este 0 -- -- 80
2020-03-28 21:00:00 6.7 0 Calma 6 Nordeste 0 -- -- 76
2020-03-28 20:00:00 8.2 2 Nordeste 13 Norte 0 -- -- 68
2020-03-28 19:00:00 10.2 8 Norte 15 Noroeste 0 -- -- 61
2020-03-28 18:00:00 13.2 6 Norte 17 Norte 0 -- -- 53
2020-03-28 17:00:00 13.7 5 Nordeste 18 Norte 0 -- -- 53
2020-03-28 16:00:00 13.8 10 Noroeste 22 Noroeste 0 -- -- 54
2020-03-28 15:00:00 14 13 Oeste 23 Noroeste 0 -- -- 55
2020-03-28 14:00:00 14.1 10 Noroeste 19 Norte 0 -- -- 53
2020-03-28 13:00:00 14.6 6 Noroeste 16 Oeste 0 -- -- 51
2020-03-28 12:00:00 13.9 4 Norte 12 Este 0 -- -- 47
2020-03-28 11:00:00 12.7 4 Este 12 Nordeste 0 -- -- 54
2020-03-28 10:00:00 9.8 2 Nordeste 5 Noroeste 0 -- -- 72
2020-03-28 09:00:00 4.3 0 Calma 2 Norte 0 -- -- 88
2020-03-28 08:00:00 1.8 0 Calma 2 Norte 0 -- -- 96
2020-03-28 07:00:00 1.2 0 Calma 2 Norte 0 -- -- 96
2020-03-28 06:00:00 1.3 0 Calma 2 Norte 0 -- -- 96
2020-03-28 05:00:00 0.9 0 Calma 2 Norte 0 -- -- 96
2020-03-28 04:00:00 1.3 0 Calma 3 Norte 0 -- -- 96
2020-03-28 03:00:00 1.4 0 Calma 2 Norte 0 -- -- 96
2020-03-28 02:00:00 1.8 0 Calma 0 Calma 0 -- -- 95
2020-03-28 01:00:00 2.4 0 Calma 2 Norte 0 -- -- 94
2020-03-28 00:00:00 2.9 0 Calma 2 Nordeste 0 -- -- 92
2020-03-27 23:00:00 3.6 0 Calma 2 Nordeste 0 -- -- 92
2020-03-27 22:00:00 4.2 0 Calma 3 Este 0 -- -- 90
2020-03-27 21:00:00 5.1 0 Calma 3 Norte 0 -- -- 87
2020-03-27 20:00:00 6.5 2 Norte 7 Nordeste 0 -- -- 80
2020-03-27 19:00:00 8.2 3 Nordeste 14 Nordeste 0 -- -- 70
2020-03-27 18:00:00 9.7 4 Este 17 Oeste 0 -- -- 66
2020-03-27 17:00:00 12.5 5 Sudeste 13 Norte 0 -- -- 56
2020-03-27 16:00:00 11.9 7 Nordeste 17 Nordeste 0 -- -- 55
2020-03-27 15:00:00 12.4 8 Nordeste 17 Nordeste 0 -- -- 48
2020-03-27 14:00:00 12.6 6 Nordeste 18 Nordeste 0 -- -- 48
2020-03-27 13:00:00 11.5 7 Nordeste 19 Nordeste 0 -- -- 48
2020-03-27 12:00:00 10.4 4 Sur 14 Nordeste 0 -- -- 56
2020-03-27 11:00:00 9.2 5 Nordeste 14 Nordeste 0 -- -- 61
2020-03-27 10:00:00 6.6 2 Nordeste 4 Nordeste 0 -- -- 74
2020-03-27 09:00:00 1.6 0 Calma 2 Norte 0 -- -- 99
2020-03-27 08:00:00 -0.8 0 Calma 0 Calma 0 -- -- 99
2020-03-27 07:00:00 -1.1 0 Calma 2 Norte 0 -- -- 99
2020-03-27 06:00:00 -1.3 0 Calma 0 Calma 0 -- -- 98
2020-03-27 05:00:00 -1.1 0 Calma 2 Norte 0 -- -- 96
2020-03-27 04:00:00 -1.1 0 Calma 2 Norte 0 -- -- 96
2020-03-27 03:00:00 -0.5 0 Calma 4 Norte 0 -- -- 94
2020-03-27 02:00:00 -0.4 0 Calma 2 Norte 0 -- -- 94
2020-03-27 01:00:00 0 0 Calma 2 Norte 0 -- -- 92
2020-03-27 00:00:00 0.6 0 Calma 3 Norte 0 -- -- 89
2020-03-26 23:00:00 1.1 0 Calma 2 Norte 0 -- -- 86
2020-03-26 22:00:00 1.8 0 Calma 5 Noroeste 0 -- -- 82
2020-03-26 21:00:00 3.1 0 Calma 4 Noroeste 0 -- -- 76
2020-03-26 20:00:00 4.3 0 Calma 10 Sur 0 -- -- 70
2020-03-26 19:00:00 5.6 2 Este 13 Noroeste 0 -- -- 64
2020-03-26 18:00:00 7.4 6 Este 19 Noroeste 0 -- -- 57
2020-03-26 17:00:00 7.7 11 Noroeste 25 Oeste 0 -- -- 54
2020-03-26 16:00:00 8.1 9 Noroeste 32 Noroeste 0 -- -- 52
2020-03-26 15:00:00 8.4 12 Noroeste 27 Oeste 0 -- -- 43
2020-03-26 14:00:00 8.6 10 Oeste 30 Noroeste 0 -- -- 48
2020-03-26 13:00:00 8.6 6 Sudoeste 22 Noroeste 0 -- -- 53
2020-03-26 12:00:00 7.3 6 Sudoeste 33 Este 0 -- -- 65
2020-03-26 11:00:00 6.9 11 Este 36 Nordeste 0 -- -- 68
2020-03-26 10:00:00 7 7 Este 29 Nordeste 0 -- -- 70
2020-03-26 09:00:00 6.9 8 Sudeste 23 Nordeste 0 -- -- 75
2020-03-26 08:00:00 6.6 5 Sur 20 Norte 0 -- -- 72
2020-03-26 07:00:00 6.6 5 Sudeste 15 Nordeste 0 -- -- 80
2020-03-26 06:00:00 6.6 6 Este 20 Sudeste 0 -- -- 80
2020-03-26 05:00:00 6.6 4 Sudeste 24 Sudoeste 0 -- -- 90
2020-03-26 04:00:00 6.3 6 Sudoeste 14 Oeste 0 -- -- 94
2020-03-26 03:00:00 5.2 2 Norte 6 Noroeste 0 -- -- 94
2020-03-26 02:00:00 5.4 3 Sur 9 Nordeste 0 -- -- 90
2020-03-26 01:00:00 5.4 0 Calma 3 Sur 0 -- -- 84
2020-03-26 00:00:00 5.3 2 Sudoeste 7 Sur 0 -- -- 82
2020-03-25 23:00:00 5 0 Calma 10 Noroeste 0 -- -- 82
2020-03-25 22:00:00 4.9 2 Oeste 12 Noroeste 0 -- -- 80
2020-03-25 21:00:00 5 4 Sudoeste 12 Noroeste 0 -- -- 84
2020-03-25 20:00:00 6 3 Este 10 Norte 0 -- -- 85
2020-03-25 19:00:00 7.6 4 Nordeste 19 Noroeste 0 -- -- 78
2020-03-25 18:00:00 10.3 5 Nordeste 19 Nordeste 0 -- -- 67
2020-03-25 17:00:00 11.7 6 Norte 21 Noroeste 0 -- -- 66
2020-03-25 16:00:00 13.1 4 Norte 18 Nordeste 0 -- -- 67
2020-03-25 15:00:00 12.8 7 Nordeste 22 Este 0 -- -- 68
2020-03-25 14:00:00 13.6 4 Norte 21 Este 0 -- -- 63
2020-03-25 13:00:00 12.5 5 Este 25 Nordeste 0 -- -- 63
2020-03-25 12:00:00 12.7 5 Nordeste 17 Nordeste 0 -- -- 65
2020-03-25 11:00:00 11.9 6 Oeste 14 Sudoeste 0 -- -- 70
2020-03-25 10:00:00 10.5 2 Norte 5 Norte 0 -- -- 78
2020-03-25 09:00:00 6.7 0 Calma 0 Calma 0 -- -- 99
2020-03-25 08:00:00 4.6 0 Calma 2 Nordeste 0 -- -- 99
2020-03-25 07:00:00 4.1 0 Calma 0 Calma 0 -- -- 98
2020-03-25 06:00:00 4.3 0 Calma 0 Calma 0 -- -- 98
2020-03-25 05:00:00 4.6 0 Calma 2 Nordeste 0 -- -- 99
2020-03-25 04:00:00 4.6 0 Calma 2 Norte 0 -- -- 99
2020-03-25 03:00:00 4.9 0 Calma 0 Calma 0 -- -- 99
2020-03-25 02:00:00 5.4 0 Calma 2 Norte 0 -- -- 98
2020-03-25 01:00:00 5.8 0 Calma 2 Nordeste 0 -- -- 97
2020-03-25 00:00:00 6.6 0 Calma 2 Norte 0 -- -- 95
2020-03-24 23:00:00 7.5 0 Calma 3 Nordeste 0 -- -- 93
2020-03-24 22:00:00 8.6 0 Calma 4 Norte 0 -- -- 90
2020-03-24 21:00:00 9.9 2 Norte 9 Nordeste 0 -- -- 85
2020-03-24 20:00:00 11.3 2 Nordeste 10 Nordeste 0 -- -- 78
2020-03-24 19:00:00 13 3 Norte 15 Nordeste 0 -- -- 67
2020-03-24 18:00:00 15.2 7 Nordeste 18 Este 0 -- -- 57
2020-03-24 17:00:00 15.8 7 Este 15 Este 0 -- -- 61
2020-03-24 16:00:00 15 6 Nordeste 26 Nordeste 0 -- -- 65
2020-03-24 15:00:00 16.2 6 Este 17 Oeste 0 -- -- 63
2020-03-24 14:00:00 15.9 4 Norte 13 Nordeste 0 -- -- 59
2020-03-24 13:00:00 16 5 Sur 10 Sudoeste 0 -- -- 60
2020-03-24 12:00:00 14 4 Este 9 Sur 0 -- -- 64
2020-03-24 11:00:00 14 8 Sudoeste 15 Sudoeste 0 -- -- 66
2020-03-24 10:00:00 12.1 6 Sudoeste 23 Sudoeste 0 -- -- 74
2020-03-24 09:00:00 10.8 14 Sudoeste 24 Sudoeste 0 -- -- 81
2020-03-24 08:00:00 9.7 3 Norte 11 Este 0 -- -- 87
2020-03-24 07:00:00 9.8 2 Noroeste 12 Sur 0 -- -- 84
2020-03-24 06:00:00 9.5 0 Calma 8 Oeste 0 -- -- 88
2020-03-24 05:00:00 9.5 0 Calma 11 Sur 0 -- -- 89
2020-03-24 04:00:00 8.1 2 Sur 10 Nordeste 0 -- -- 94
2020-03-24 03:00:00 9.2 3 Sur 18 Sudoeste 0 -- -- 89
2020-03-24 02:00:00 8.2 2 Noroeste 9 Oeste 0 -- -- 94
2020-03-24 01:00:00 8.7 5 Sudoeste 12 Sudoeste 0 -- -- 95
2020-03-24 00:00:00 8.3 0 Calma 8 Sur 0 -- -- 98
2020-03-23 23:00:00 8.8 0 Calma 4 Sudoeste 0 -- -- 99
2020-03-23 22:00:00 9.5 0 Calma 3 Sudoeste 0 -- -- 98
2020-03-23 21:00:00 10.2 0 Calma 9 Sudeste 0.6 -- -- 97
2020-03-23 20:00:00 10.7 0 Calma 7 Nordeste 0 -- -- 93
2020-03-23 19:00:00 11 0 Calma 10 Nordeste 0 -- -- 93
2020-03-23 18:00:00 11.4 3 Nordeste 10 Nordeste 0 -- -- 91
2020-03-23 17:00:00 12.4 6 Nordeste 13 Nordeste 0 -- -- 88
2020-03-23 16:00:00 12.4 3 Nordeste 17 Nordeste 4 -- -- 91
2020-03-23 15:00:00 14.3 4 Norte 12 Nordeste 0 -- -- 70
2020-03-23 14:00:00 13.6 3 Norte 14 Nordeste 0 -- -- 72
2020-03-23 13:00:00 14.1 5 Nordeste 13 Norte 0 -- -- 74
2020-03-23 12:00:00 11.6 4 Norte 10 Nordeste 0 -- -- 81
2020-03-23 11:00:00 10.8 2 Nordeste 7 Norte 0 -- -- 86
2020-03-23 10:00:00 9.6 0 Calma 5 Nordeste 0 -- -- 90
2020-03-23 09:00:00 8.9 0 Calma 2 Oeste 0 -- -- 100
2020-03-23 08:00:00 7.7 0 Calma 3 Oeste 0 -- -- 99
2020-03-23 07:00:00 7.5 2 Oeste 4 Oeste 0 -- -- 99
2020-03-23 06:00:00 7.3 0 Calma 3 Oeste 0 -- -- 98
2020-03-23 05:00:00 7.1 0 Calma 3 Oeste 0 -- -- 98
2020-03-23 04:00:00 6.5 0 Calma 2 Oeste 0 -- -- 99
2020-03-23 03:00:00 6.2 0 Calma 2 Oeste 0 -- -- 99
2020-03-23 02:00:00 5.5 0 Calma 4 Oeste 0 -- -- 98
2020-03-23 01:00:00 5.9 0 Calma 2 Noroeste 0 -- -- 97
2020-03-23 00:00:00 6.1 0 Calma 3 Noroeste 0 -- -- 95
2020-03-22 23:00:00 7.1 0 Calma 3 Noroeste 0 -- -- 91
2020-03-22 22:00:00 8.3 0 Calma 3 Sudoeste 0 -- -- 87
2020-03-22 21:00:00 9.5 0 Calma 6 Noroeste 0 -- -- 84
2020-03-22 20:00:00 10 3 Noroeste 8 Norte 0 -- -- 82
2020-03-22 19:00:00 10.4 3 Noroeste 9 Oeste 0 -- -- 82
2020-03-22 18:00:00 11.1 3 Noroeste 17 Noroeste 0 -- -- 81
2020-03-22 17:00:00 13 5 Noroeste 21 Norte 0 -- -- 73
2020-03-22 16:00:00 14.7 5 Noroeste 20 Nordeste 0 -- -- 67
2020-03-22 15:00:00 14.7 7 Nordeste 14 Nordeste 0 -- -- 63
2020-03-22 14:00:00 14.9 8 Nordeste 20 Norte 0 -- -- 61
2020-03-22 13:00:00 15.6 10 Nordeste 20 Nordeste 0 -- -- 60
2020-03-22 12:00:00 15.3 5 Nordeste 17 Nordeste 0 -- -- 61
2020-03-22 11:00:00 12.2 4 Sudoeste 7 Sudoeste 0 -- -- 70
2020-03-22 10:00:00 9.9 3 Sudoeste 8 Sudoeste 0 -- -- 78
2020-03-22 09:00:00 8.1 0 Calma 2 Sur 0 -- -- 81
2020-03-22 08:00:00 7.3 0 Calma 3 Sur 0 -- -- 82
2020-03-22 07:00:00 7.8 0 Calma 4 Oeste 0 -- -- 74
2020-03-22 06:00:00 9.1 2 Oeste 9 Sudeste 0 -- -- 69
2020-03-22 05:00:00 8.9 2 Sudoeste 11 Sudoeste 0 -- -- 71
2020-03-22 04:00:00 9.6 4 Oeste 17 Noroeste 0 -- -- 69
2020-03-22 03:00:00 8.9 0 Calma 13 Noroeste 0 -- -- 70
2020-03-22 02:00:00 10.3 5 Noroeste 19 Sudoeste 0 -- -- 65
2020-03-22 01:00:00 10 6 Sudoeste 14 Sudoeste 0 -- -- 66
2020-03-22 00:00:00 10.3 3 Sudoeste 11 Oeste 0 -- -- 64
2020-03-21 23:00:00 10.6 5 Oeste 11 Noroeste 0 -- -- 63
2020-03-21 22:00:00 9.4 0 Calma 5 Sudeste 0 -- -- 66
2020-03-21 21:00:00 10 0 Calma 5 Sur 0 -- -- 66
2020-03-21 20:00:00 12 2 Oeste 9 Oeste 0 -- -- 60
2020-03-21 19:00:00 13.4 5 Oeste 19 Oeste 0 -- -- 51
2020-03-21 18:00:00 14.8 10 Sudoeste 25 Sudoeste 0 -- -- 46
2020-03-21 17:00:00 15.3 15 Sudoeste 31 Sudoeste 0 -- -- 48
2020-03-21 16:00:00 15.9 12 Sur 35 Sudoeste 0 -- -- 47
2020-03-21 15:00:00 16 11 Sur 30 Sudoeste 0 -- -- 50
2020-03-21 14:00:00 14.9 11 Sur 38 Sudoeste 0 -- -- 50
2020-03-21 13:00:00 14.3 8 Sudoeste 27 Sudoeste 0 -- -- 51
2020-03-21 12:00:00 13 10 Oeste 37 Sudoeste 0 -- -- 52
2020-03-21 11:00:00 11.7 22 Sudoeste 51 Sur 0 -- -- 55
2020-03-21 10:00:00 10.5 23 Sudoeste 51 Sur 0 -- -- 60
2020-03-21 09:00:00 9.2 28 Sur 49 Sudoeste 0 -- -- 66
2020-03-21 08:00:00 8.5 25 Sur 49 Sur 0 -- -- 71
2020-03-21 07:00:00 8.5 29 Sudoeste 52 Sudoeste 0 -- -- 72
2020-03-21 06:00:00 9 28 Sur 58 Sudoeste 0 -- -- 69
2020-03-21 05:00:00 9.4 31 Sur 50 Sur 0 -- -- 73
2020-03-21 04:00:00 9.6 12 Sur 34 Sur 0 -- -- 72
2020-03-21 03:00:00 10.3 6 Nordeste 35 Sur 0 -- -- 71
2020-03-21 02:00:00 10.7 5 Este 32 Sudoeste 0 -- -- 70
2020-03-21 01:00:00 11 13 Sur 39 Sur 0 -- -- 68
2020-03-21 00:00:00 11 18 Sudoeste 51 Sudoeste 0 -- -- 69
2020-03-20 23:00:00 11.3 22 Sur 45 Sudoeste 0 -- -- 68
2020-03-20 22:00:00 11.5 14 Sudoeste 29 Sur 0 -- -- 69
2020-03-20 21:00:00 11.9 6 Sur 33 Sudoeste 0 -- -- 64
2020-03-20 20:00:00 12.6 23 Sur 36 Sudoeste 0 -- -- 60
2020-03-20 19:00:00 13.1 14 Sur 33 Sudoeste 0 -- -- 58
2020-03-20 18:00:00 14.5 10 Sur 30 Sur 0 -- -- 55
2020-03-20 17:00:00 14.5 15 Sudoeste 44 Sudoeste 0 -- -- 58
2020-03-20 16:00:00 14.7 24 Sur 44 Sur 0 -- -- 56
2020-03-20 15:00:00 14.6 21 Sudoeste 54 Sudoeste 0 -- -- 56
2020-03-20 14:00:00 14 20 Sur 48 Sudoeste 0 -- -- 57
2020-03-20 13:00:00 13.4 20 Sudoeste 58 Sudoeste 0 -- -- 56
2020-03-20 12:00:00 12.6 21 Sur 54 Sudoeste 0 -- -- 62
2020-03-20 11:00:00 11.7 22 Sur 58 Sur 0 -- -- 60
2020-03-20 10:00:00 10.7 32 Sudoeste 57 Sudoeste 0 -- -- 62
2020-03-20 09:00:00 9.6 35 Sur 57 Sur 0 -- -- 66
2020-03-20 08:00:00 9.4 31 Sur 56 Sudoeste 0 -- -- 67
2020-03-20 07:00:00 9.6 26 Sur 53 Sur 0 -- -- 65
2020-03-20 06:00:00 9.8 23 Sudoeste 41 Sur 0 -- -- 64
2020-03-20 05:00:00 10.4 19 Sur 46 Sudoeste 0 -- -- 59
2020-03-20 04:00:00 10.6 22 Sur 45 Sur 0 -- -- 62
2020-03-20 03:00:00 11.2 22 Sur 44 Sur 0 -- -- 66
2020-03-20 02:00:00 11.9 23 Sur 43 Sudoeste 0 -- -- 65
2020-03-20 01:00:00 12.1 16 Sur 53 Sudoeste 0 -- -- 68
2020-03-20 00:00:00 12.5 30 Sudoeste 53 Sudoeste 0 -- -- 67
2020-03-19 23:00:00 12.6 18 Sudoeste 43 Sudoeste 0 -- -- 64
2020-03-19 22:00:00 13 12 Sudoeste 41 Sudoeste 0 -- -- 61
2020-03-19 21:00:00 13.5 10 Sur 30 Sudoeste 0 -- -- 56
2020-03-19 20:00:00 13.8 10 Sudoeste 23 Oeste 0 -- -- 50
2020-03-19 19:00:00 14.8 7 Sudoeste 37 Sudoeste 0 -- -- 56
2020-03-19 18:00:00 15.7 16 Sudoeste 41 Sudoeste 0 -- -- 55
2020-03-19 17:00:00 16.5 22 Sur 43 Sudoeste 0 -- -- 52
2020-03-19 16:00:00 17.6 22 Sudoeste 52 Sur 0 -- -- 49
2020-03-19 15:00:00 17.4 20 Sur 44 Sudoeste 0 -- -- 48
2020-03-19 14:00:00 17.2 19 Sudoeste 45 Sur 0 -- -- 51
2020-03-19 13:00:00 16.6 23 Sur 41 Sur 0 -- -- 58
2020-03-19 12:00:00 16 20 Sur 45 Sur 0 -- -- 62
2020-03-19 11:00:00 14.8 19 Sur 37 Sur 0 -- -- 65
2020-03-19 10:00:00 13.2 21 Sur 49 Sudoeste 0 -- -- 70
2020-03-19 09:00:00 12.4 25 Sudoeste 46 Sudoeste 0 -- -- 74
2020-03-19 08:00:00 12.1 24 Sudoeste 45 Sudoeste 0 -- -- 75
2020-03-19 07:00:00 12 22 Sudoeste 45 Oeste 0 -- -- 77
2020-03-19 06:00:00 11.8 11 Sudoeste 33 Sudoeste 0 -- -- 79
2020-03-19 05:00:00 12 13 Sudoeste 35 Sudoeste 0 -- -- 79
2020-03-19 04:00:00 12.2 13 Oeste 30 Oeste 0 -- -- 79
2020-03-19 03:00:00 12.2 9 Oeste 22 Sudoeste 0 -- -- 81
2020-03-19 02:00:00 12.7 9 Oeste 23 Sudoeste 0 -- -- 77
2020-03-19 01:00:00 13.2 12 Oeste 25 Sudoeste 0 -- -- 71
2020-03-19 00:00:00 13.5 15 Sudoeste 32 Sur 0 -- -- 66
2020-03-18 23:00:00 13.6 11 Sudoeste 25 Sudoeste 0 -- -- 64
2020-03-18 22:00:00 13.8 9 Sudoeste 19 Oeste 0 -- -- 64
2020-03-18 21:00:00 14.2 6 Sudoeste 23 Sudoeste 0 -- -- 64
2020-03-18 20:00:00 14.3 10 Sudoeste 22 Sudoeste 0 -- -- 65
2020-03-18 19:00:00 14.9 9 Sudoeste 21 Sudoeste 0 -- -- 65
2020-03-18 18:00:00 15.9 13 Sudoeste 24 Sudoeste 0 -- -- 64
2020-03-18 17:00:00 17.3 6 Sur 18 Sudoeste 0 -- -- 59
2020-03-18 16:00:00 18.4 6 Sur 14 Sur 0 -- -- 58
2020-03-18 15:00:00 17.2 9 Sudoeste 20 Sudoeste 0 -- -- 63
2020-03-18 14:00:00 17 12 Sudoeste 22 Sudoeste 0 -- -- 61
2020-03-18 13:00:00 17 7 Sudoeste 19 Sudoeste 0 -- -- 61
2020-03-18 12:00:00 16.1 7 Sur 22 Sudoeste 0 -- -- 64
2020-03-18 11:00:00 14.6 3 Sur 21 Sur 0 -- -- 71
2020-03-18 10:00:00 13.4 9 Sudoeste 22 Sur 0 -- -- 74
2020-03-18 09:00:00 12.4 9 Sudoeste 22 Sudoeste 0 -- -- 77
2020-03-18 08:00:00 11.3 9 Sudoeste 15 Oeste 0 -- -- 82
2020-03-18 07:00:00 10.9 6 Oeste 10 Noroeste 0 -- -- 83
2020-03-18 06:00:00 10.3 0 Calma 8 Noroeste 0 -- -- 84
2020-03-18 05:00:00 9.3 0 Calma 6 Norte 0 -- -- 91
2020-03-18 04:00:00 10.1 2 Nordeste 16 Oeste 0 -- -- 89
2020-03-18 03:00:00 10 5 Oeste 9 Oeste 0 -- -- 92
2020-03-18 02:00:00 8.9 5 Sudoeste 8 Sudoeste 0 -- -- 100
2020-03-18 01:00:00 7.9 0 Calma 3 Nordeste 0 -- -- 100
2020-03-18 00:00:00 7.8 0 Calma 3 Norte 0 -- -- 100
2020-03-17 23:00:00 7.9 0 Calma 4 Norte 0 -- -- 100
2020-03-17 22:00:00 8.4 0 Calma 2 Norte 0 -- -- 100
2020-03-17 21:00:00 8.7 0 Calma 2 Nordeste 0 -- -- 99
2020-03-17 20:00:00 9.5 0 Calma 5 Nordeste 0 -- -- 97
2020-03-17 19:00:00 10.6 0 Calma 6 Nordeste 0 -- -- 95
2020-03-17 18:00:00 11.5 3 Nordeste 8 Nordeste 0 -- -- 91
2020-03-17 17:00:00 11.1 3 Este 5 Este 0 -- -- 92
2020-03-17 16:00:00 11.2 0 Calma 6 Nordeste 0 -- -- 92
2020-03-17 15:00:00 10.7 2 Norte 5 Norte 0 -- -- 94
2020-03-17 14:00:00 9.8 0 Calma 5 Noroeste 0.2 -- -- 98
2020-03-17 13:00:00 9.3 0 Calma 4 Noroeste 0 -- -- 99
2020-03-17 12:00:00 9.1 0 Calma 6 Noroeste 0 -- -- 100
2020-03-17 11:00:00 9 0 Calma 6 Nordeste 0 -- -- 100
2020-03-17 10:00:00 8.8 2 Nordeste 5 Nordeste 0 -- -- 100
2020-03-17 09:00:00 8.5 0 Calma 3 Noroeste 0 -- -- 100
2020-03-17 08:00:00 8.1 0 Calma 6 Nordeste 0 -- -- 100
2020-03-17 07:00:00 8 0 Calma 5 Norte 0 -- -- 100
2020-03-17 06:00:00 7.9 0 Calma 5 Nordeste 0 -- -- 100
2020-03-17 05:00:00 7.8 0 Calma 4 Norte 0 -- -- 100
2020-03-17 04:00:00 7.8 2 Nordeste 5 Este 0.2 -- -- 100
2020-03-17 03:00:00 7.7 2 Nordeste 5 Nordeste 0.2 -- -- 100
2020-03-17 02:00:00 7.7 0 Calma 4 Noroeste 0 -- -- 100
2020-03-17 01:00:00 7.7 0 Calma 5 Oeste 0.2 -- -- 100
2020-03-17 00:00:00 7.6 0 Calma 9 Noroeste 0.4 -- -- 100
2020-03-16 23:00:00 7.5 3 Este 7 Este 0.8 -- -- 100
2020-03-16 22:00:00 7.4 0 Calma 6 Sudeste 0.4 -- -- 100
2020-03-16 21:00:00 7.2 0 Calma 8 Norte 0.6 -- -- 100
2020-03-16 20:00:00 7.2 0 Calma 8 Este 0.2 -- -- 100
2020-03-16 19:00:00 7.2 4 Nordeste 14 Nordeste 0.2 -- -- 100
2020-03-16 18:00:00 7.2 2 Sur 11 Nordeste 1 -- -- 100
2020-03-16 17:00:00 7.2 4 Este 13 Nordeste 0.4 -- -- 100
2020-03-16 16:00:00 7.4 0 Calma 9 Este 0 -- -- 98
2020-03-16 15:00:00 7.7 2 Nordeste 9 Este 0.6 -- -- 100
2020-03-16 14:00:00 7.3 3 Este 10 Este 1.2 -- -- 100
2020-03-16 13:00:00 7.1 3 Este 7 Este 1.6 -- -- 100
2020-03-16 12:00:00 6.7 0 Calma 5 Nordeste 1 -- -- 100
2020-03-16 11:00:00 5.9 0 Calma 3 Sur 1.4 -- -- 100
2020-03-16 10:00:00 5.4 0 Calma 5 Sur 1.6 -- -- 100
2020-03-16 09:00:00 5.1 3 Sur 8 Sur 2.4 -- -- 99
2020-03-16 08:00:00 5.1 4 Sudoeste 9 Sur 2.8 -- -- 97
2020-03-16 07:00:00 5.3 3 Oeste 12 Oeste 3 -- -- 95
2020-03-16 06:00:00 5.5 4 Oeste 15 Noroeste 2 -- -- 97
2020-03-16 05:00:00 5.7 4 Noroeste 14 Oeste 2.6 -- -- 96
2020-03-16 04:00:00 5.7 2 Sudoeste 11 Oeste 3.6 -- -- 97
2020-03-16 03:00:00 5.7 3 Oeste 11 Noroeste 2.6 -- -- 98
2020-03-16 02:00:00 5.7 0 Calma 13 Noroeste 2.8 -- -- 97
2020-03-16 01:00:00 6 4 Sudoeste 23 Noroeste 3.6 -- -- 94
2020-03-16 00:00:00 7 4 Oeste 9 Noroeste 3.4 -- -- 99
2020-03-15 23:00:00 7.1 0 Calma 6 Este 0.6 -- -- 99
2020-03-15 22:00:00 7.3 0 Calma 16 Oeste 2.6 -- -- 98
2020-03-15 21:00:00 7.6 0 Calma 17 Norte 7.6 -- -- 97
2020-03-15 20:00:00 7.8 3 Noroeste 14 Noroeste 6 -- -- 95
2020-03-15 19:00:00 8.6 3 Nordeste 13 Este 6 -- -- 96
2020-03-15 18:00:00 9.5 6 Oeste 16 Nordeste 0 -- -- 93
2020-03-15 17:00:00 12 6 Nordeste 22 Nordeste 0 -- -- 83
2020-03-15 16:00:00 15.5 7 Nordeste 24 Nordeste 0 -- -- 69
2020-03-15 15:00:00 18.8 8 Sudoeste 32 Sur 0 -- -- 50
2020-03-15 14:00:00 18.4 9 Sur 31 Sur 0 -- -- 49
2020-03-15 13:00:00 16.8 8 Sudeste 42 Sur 0 -- -- 53
2020-03-15 12:00:00 14.4 18 Sur 49 Sur 0 -- -- 56
2020-03-15 11:00:00 13.5 21 Sur 50 Sur 0 -- -- 54
2020-03-15 10:00:00 12.1 32 Sudoeste 53 Sur 0 -- -- 59
2020-03-15 09:00:00 11.2 16 Sudoeste 51 Sur 0 -- -- 62
2020-03-15 08:00:00 10.4 25 Sur 52 Sur 0 -- -- 65
2020-03-15 07:00:00 9.9 21 Sur 52 Sur 0 -- -- 67
2020-03-15 06:00:00 10 31 Sudoeste 58 Sur 0 -- -- 59
2020-03-15 05:00:00 10.3 21 Sur 48 Sudoeste 0 -- -- 46
2020-03-15 04:00:00 9.7 11 Oeste 24 Oeste 0 -- -- 42
2020-03-15 03:00:00 4.8 0 Calma 6 Nordeste 0 -- -- 74
2020-03-15 02:00:00 3.4 0 Calma 2 Norte 0 -- -- 93
2020-03-15 01:00:00 3.6 0 Calma 3 Noroeste 0 -- -- 96
2020-03-15 00:00:00 3.7 0 Calma 0 Calma 0 -- -- 96
2020-03-14 23:00:00 4.4 0 Calma 2 Noroeste 0 -- -- 93
2020-03-14 22:00:00 5.1 0 Calma 4 Noroeste 0 -- -- 91
2020-03-14 21:00:00 5.9 0 Calma 3 Norte 0 -- -- 89
2020-03-14 20:00:00 7 0 Calma 2 Noroeste 0 -- -- 84
2020-03-14 19:00:00 9 0 Calma 8 Norte 0 -- -- 75
2020-03-14 18:00:00 12.3 3 Norte 10 Noroeste 0 -- -- 62
2020-03-14 17:00:00 12.1 4 Nordeste 10 Nordeste 0 -- -- 61
2020-03-14 16:00:00 12.4 3 Nordeste 12 Este 0 -- -- 60
2020-03-14 15:00:00 12.5 5 Este 17 Nordeste 0 -- -- 62
2020-03-14 14:00:00 11.4 4 Nordeste 16 Nordeste 0 -- -- 66
2020-03-14 13:00:00 10.9 5 Norte 18 Noroeste 0 -- -- 66
2020-03-14 12:00:00 10.7 7 Nordeste 19 Nordeste 0 -- -- 66
2020-03-14 11:00:00 10.4 5 Este 17 Este 0 -- -- 68
2020-03-14 10:00:00 8.2 2 Este 6 Este 0 -- -- 83
2020-03-14 09:00:00 4.5 0 Calma 2 Este 0 -- -- 98
2020-03-14 08:00:00 3.2 0 Calma 0 Calma 0 -- -- 98
2020-03-14 07:00:00 3.4 0 Calma 0 Calma 0 -- -- 97
2020-03-14 06:00:00 4 0 Calma 2 Nordeste 0 -- -- 92
2020-03-14 05:00:00 5 0 Calma 3 Nordeste 0 -- -- 90
2020-03-14 04:00:00 5.9 3 Nordeste 9 Nordeste 0 -- -- 87
2020-03-14 03:00:00 6 0 Calma 8 Nordeste 0 -- -- 88
2020-03-14 02:00:00 6 0 Calma 4 Norte 0 -- -- 92
2020-03-14 01:00:00 6.1 0 Calma 5 Norte 0 -- -- 90
2020-03-14 00:00:00 6.2 0 Calma 6 Norte 0 -- -- 91
2020-03-13 23:00:00 6.3 0 Calma 7 Noroeste 0 -- -- 90
2020-03-13 22:00:00 6.5 0 Calma 12 Norte 0 -- -- 91
2020-03-13 21:00:00 6.6 3 Noroeste 8 Norte 0 -- -- 90
2020-03-13 20:00:00 6.8 3 Noroeste 12 Oeste 0 -- -- 88
2020-03-13 19:00:00 7.5 0 Calma 9 Noroeste 0 -- -- 87
2020-03-13 18:00:00 8.2 0 Calma 8 Nordeste 0 -- -- 84
2020-03-13 17:00:00 8.2 3 Noroeste 15 Norte 0 -- -- 82
2020-03-13 16:00:00 9.1 4 Norte 18 Noroeste 0 -- -- 80
2020-03-13 15:00:00 9.6 4 Noroeste 17 Nordeste 0 -- -- 75
2020-03-13 14:00:00 9.3 4 Nordeste 13 Norte 0 -- -- 81
2020-03-13 13:00:00 9.7 3 Nordeste 14 Nordeste 0 -- -- 78
2020-03-13 12:00:00 10.4 5 Nordeste 17 Este 0 -- -- 72
2020-03-13 11:00:00 9.4 7 Nordeste 18 Norte 0 -- -- 76
2020-03-13 10:00:00 7.7 4 Nordeste 10 Nordeste 0 -- -- 88
2020-03-13 09:00:00 6.9 0 Calma 9 Nordeste 0 -- -- 96
2020-03-13 08:00:00 6.5 3 Nordeste 12 Nordeste 0 -- -- 98
2020-03-13 07:00:00 6.4 4 Nordeste 13 Norte 0.2 -- -- 99
2020-03-13 06:00:00 6.3 0 Calma 8 Nordeste 0 -- -- 99
2020-03-13 05:00:00 6.4 0 Calma 8 Este 0 -- -- 97
2020-03-13 04:00:00 6.4 2 Nordeste 9 Nordeste 0 -- -- 98
2020-03-13 03:00:00 6.5 4 Nordeste 10 Nordeste 0 -- -- 99
2020-03-13 02:00:00 7.1 4 Nordeste 18 Nordeste 0.2 -- -- 100
2020-03-13 01:00:00 8 4 Nordeste 10 Nordeste 0 -- -- 100
2020-03-13 00:00:00 8.3 2 Sudoeste 11 Oeste 0 -- -- 100
2020-03-12 23:00:00 8.6 5 Nordeste 13 Este 0 -- -- 100
2020-03-12 22:00:00 9.2 2 Nordeste 7 Nordeste 0 -- -- 100
2020-03-12 21:00:00 9.3 0 Calma 9 Nordeste 0 -- -- 99
2020-03-12 20:00:00 9.4 3 Nordeste 13 Este 0 -- -- 97
2020-03-12 19:00:00 9.7 4 Norte 10 Nordeste 0 -- -- 95
2020-03-12 18:00:00 10.3 2 Noroeste 13 Nordeste 0 -- -- 92
2020-03-12 17:00:00 10.7 3 Norte 16 Nordeste 0 -- -- 92
2020-03-12 16:00:00 11.1 4 Nordeste 15 Nordeste 0 -- -- 92
2020-03-12 15:00:00 11.2 4 Nordeste 15 Nordeste 0 -- -- 94
2020-03-12 14:00:00 11.3 2 Noroeste 10 Norte 0 -- -- 93
2020-03-12 13:00:00 11.3 0 Calma 11 Norte 0 -- -- 96
2020-03-12 12:00:00 11.1 -- -- -- -- 0 -- -- 98
2020-03-12 11:00:00 -- -- -- -- -- -- -- -- --
2020-03-12 10:00:00 -- -- -- -- -- -- -- -- --
2020-03-12 09:00:00 -- -- -- -- -- -- -- -- --
2020-03-12 08:00:00 -- -- -- -- -- -- -- -- --
2020-03-12 07:00:00 -- -- -- -- -- -- -- -- --
2020-03-12 06:00:00 -- -- -- -- -- -- -- -- --
2020-03-12 05:00:00 -- -- -- -- -- -- -- -- --
2020-03-12 04:00:00 -- -- -- -- -- -- -- -- --
2020-03-12 03:00:00 -- -- -- -- -- -- -- -- --
2020-03-12 02:00:00 -- -- -- -- -- -- -- -- --
2020-03-12 01:00:00 -- -- -- -- -- -- -- -- --
2020-03-12 00:00:00 -- -- -- -- -- -- -- -- --
2020-03-11 23:00:00 -- -- -- -- -- -- -- -- --
2020-03-11 22:00:00 -- -- -- -- -- -- -- -- --
2020-03-11 21:00:00 -- -- -- -- -- -- -- -- --
2020-03-11 20:00:00 -- -- -- -- -- -- -- -- --
2020-03-11 19:00:00 -- -- -- -- -- -- -- -- --
2020-03-11 18:00:00 -- -- -- -- -- -- -- -- --
2020-03-11 17:00:00 21.1 -- -- -- -- 0 -- -- 54
2020-03-11 16:00:00 21.3 -- -- -- -- 0 -- -- 51
2020-03-11 15:00:00 21.1 -- -- -- -- 0 -- -- 51
2020-03-11 14:00:00 20.4 -- -- -- -- 0 -- -- 53
2020-03-11 13:00:00 19.7 -- -- -- -- 0 -- -- 56
2020-03-11 12:00:00 18.3 -- -- -- -- 0 -- -- 60
2020-03-11 11:00:00 15.2 -- -- -- -- 0 -- -- 80
2020-03-11 10:00:00 10.6 -- -- -- -- 0 -- -- 100
2020-03-11 09:00:00 7.2 -- -- -- -- 0 -- -- 100
2020-03-11 08:00:00 6.1 -- -- -- -- 0 -- -- 100
2020-03-11 07:00:00 5.6 -- -- -- -- 0 -- -- 100
2020-03-11 06:00:00 5.5 -- -- -- -- 0 -- -- 100
2020-03-11 05:00:00 5.5 -- -- -- -- 0 -- -- 100
2020-03-11 04:00:00 5.6 -- -- -- -- 0 -- -- 100
2020-03-11 03:00:00 5.7 -- -- -- -- 0 -- -- 100
2020-03-11 02:00:00 5.8 -- -- -- -- 0 -- -- 100
2020-03-11 01:00:00 5.9 -- -- -- -- 0 -- -- 100
2020-03-11 00:00:00 6.2 -- -- -- -- 0 -- -- 99